Time;durP1;ratioP1;P1;durP2;ratioP2;P2;SDS_P1;SDS_P2;PMS_P1;PMS_P2;Temp;Humidity;BMP_temperature;BMP_pressure;BME280_temperature;BME280_humidity;BME280_pressure;Samples;Min_cycle;Max_cycle;Signal;HPM_P1;HPM_P2
2022/08/22 00:00:12;;;;;;;;;22.00;20.20;;;;;23.89;72.17;98633.44;4943398;29;8905;-77
2022/08/22 00:03:25;;;;;;;;;20.40;19.60;;;;;24.37;70.85;98625.59;4928493;29;8905;-78
2022/08/22 00:06:14;;;;;;;;;22.40;21.60;;;;;24.76;69.29;98621.00;4943486;28;9719;-76
2022/08/22 00:08:57;;;;;;;;;20.20;19.80;;;;;24.73;69.41;98625.75;4909209;29;8861;-78
2022/08/22 00:11:41;;;;;;;;;22.00;19.80;;;;;25.01;68.09;98624.50;4909169;29;8881;-79
2022/08/22 00:14:20;;;;;;;;;21.00;20.20;;;;;24.37;70.12;98622.94;4909876;28;8904;-80
2022/08/22 00:17:00;;;;;;;;;23.40;23.40;;;;;24.52;69.36;98623.69;4967695;28;8967;-78
2022/08/22 00:19:41;;;;;;;;;23.00;21.60;;;;;24.33;70.33;98611.66;4988099;28;8854;-78
2022/08/22 00:22:19;;;;;;;;;25.20;23.00;;;;;24.13;71.34;98613.06;4956845;28;8877;-77
2022/08/22 00:24:57;;;;;;;;;19.80;19.80;;;;;24.15;71.25;98607.63;5018115;28;8975;-78
2022/08/22 00:27:32;;;;;;;;;26.40;25.00;;;;;24.01;71.81;98605.13;5007711;28;8891;-78
2022/08/22 00:30:08;;;;;;;;;21.00;20.20;;;;;24.56;69.99;98611.81;5024317;28;8937;-77
2022/08/22 00:32:43;;;;;;;;;20.40;20.40;;;;;24.58;69.44;98609.06;5004082;28;8932;-78
2022/08/22 00:35:21;;;;;;;;;24.80;22.60;;;;;24.59;70.23;98597.41;4989535;28;8862;-77
2022/08/22 00:38:02;;;;;;;;;25.80;23.00;;;;;24.38;70.50;98597.13;4972099;28;9016;-79
2022/08/22 00:40:52;;;;;;;;;21.20;21.20;;;;;24.43;70.29;98603.84;4988437;28;8866;-78
2022/08/22 00:44:03;;;;;;;;;23.20;20.20;;;;;25.01;69.05;98597.84;5004947;28;8866;-78
2022/08/22 00:46:56;;;;;;;;;22.60;21.60;;;;;24.56;70.02;98600.31;5042550;28;8858;-77
2022/08/22 00:49:48;;;;;;;;;25.20;24.80;;;;;25.03;68.26;98601.28;5080974;28;8832;-80
2022/08/22 00:52:36;;;;;;;;;25.20;23.00;;;;;25.24;67.84;98599.66;5089808;28;8867;-76
2022/08/22 00:55:22;;;;;;;;;25.00;24.60;;;;;24.76;68.42;98599.66;5071461;28;8840;-78
2022/08/22 00:58:32;;;;;;;;;21.40;20.00;;;;;24.57;69.44;98607.34;5090859;28;8851;-79
2022/08/22 01:01:06;;;;;;;;;18.80;18.80;;;;;24.87;69.21;98602.38;5090434;28;8879;-77
2022/08/22 01:04:08;;;;;;;;;22.60;22.20;;;;;25.15;67.53;98599.47;5089124;28;8862;-77
2022/08/22 01:06:49;;;;;;;;;20.20;19.40;;;;;24.78;69.03;98600.41;5084074;28;8862;-78
2022/08/22 01:09:31;;;;;;;;;20.80;20.80;;;;;24.44;69.74;98607.34;5069586;28;8874;-79
2022/08/22 01:12:25;;;;;;;;;19.20;19.20;;;;;24.46;70.06;98608.06;5063088;28;8936;-78
2022/08/22 01:14:59;;;;;;;;;22.40;20.80;;;;;23.87;72.36;98606.09;5071372;28;8849;-77
2022/08/22 01:17:55;;;;;;;;;23.00;22.40;;;;;24.12;70.91;98611.38;5088816;28;8834;-78
2022/08/22 01:21:12;;;;;;;;;20.60;20.60;;;;;24.05;71.40;98609.28;5071543;28;8947;-78
2022/08/22 01:24:37;;;;;;;;;22.20;22.20;;;;;23.67;72.93;98604.81;5085923;28;9502;-77
2022/08/22 01:27:56;;;;;;;;;22.40;21.80;;;;;23.61;73.22;98611.41;5108724;28;8859;-75
2022/08/22 01:30:48;;;;;;;;;23.20;22.40;;;;;23.61;73.67;98600.75;5107694;28;8839;-77
2022/08/22 01:33:55;;;;;;;;;25.20;25.00;;;;;23.31;74.71;98612.53;5071375;28;8861;-77
2022/08/22 01:36:45;;;;;;;;;20.40;20.40;;;;;23.39;74.65;98609.34;4988307;28;8934;-77
2022/08/22 01:39:46;;;;;;;;;20.80;20.80;;;;;23.21;75.43;98608.78;4971858;28;9579;-76
2022/08/22 01:42:39;;;;;;;;;23.20;23.20;;;;;23.66;73.40;98600.41;4988056;28;8876;-78
2022/08/22 01:45:38;;;;;;;;;20.80;20.00;;;;;23.65;73.46;98614.72;4972345;28;9008;-76
2022/08/22 01:48:12;;;;;;;;;23.40;23.40;;;;;23.82;72.72;98608.22;4911513;29;8909;-77
2022/08/22 01:50:47;;;;;;;;;27.00;25.80;;;;;23.71;73.23;98615.13;4911250;29;8862;-82
2022/08/22 01:53:23;;;;;;;;;26.00;25.00;;;;;23.68;73.32;98612.66;4895510;29;8924;-78
2022/08/22 01:56:00;;;;;;;;;19.40;19.40;;;;;23.86;72.49;98605.25;4926495;29;9022;-78
2022/08/22 01:58:33;;;;;;;;;22.60;22.60;;;;;23.86;72.78;98610.56;4913250;29;8892;-77
2022/08/22 02:01:16;;;;;;;;;27.20;22.60;;;;;23.70;73.18;98609.88;4912446;29;8860;-80
2022/08/22 02:03:59;;;;;;;;;24.20;23.60;;;;;23.75;73.01;98610.44;4929149;29;8958;-77
2022/08/22 02:06:40;;;;;;;;;25.80;25.80;;;;;23.70;73.17;98613.41;4928585;29;8990;-78
2022/08/22 02:09:23;;;;;;;;;25.60;24.80;;;;;23.71;73.34;98611.59;4928925;29;8856;-78
2022/08/22 02:11:55;;;;;;;;;25.80;24.60;;;;;23.77;73.06;98615.66;4913416;29;8848;-78
2022/08/22 02:14:40;;;;;;;;;23.40;22.00;;;;;23.79;72.79;98613.75;4971021;28;8938;-78
2022/08/22 02:17:20;;;;;;;;;23.40;22.00;;;;;23.91;72.33;98608.44;4970799;28;8888;-78
2022/08/22 02:19:58;;;;;;;;;28.40;27.00;;;;;23.95;72.12;98609.06;4970343;28;9686;-77
2022/08/22 02:22:34;;;;;;;;;27.20;24.40;;;;;23.86;72.49;98599.06;5002394;28;8972;-77
2022/08/22 02:25:19;;;;;;;;;26.60;25.40;;;;;23.64;73.35;98607.66;5007525;28;8866;-78
2022/08/22 02:27:56;;;;;;;;;26.20;24.80;;;;;23.96;72.43;98604.59;5068045;28;8966;-77
2022/08/22 02:30:42;;;;;;;;;21.00;19.80;;;;;23.75;73.16;98605.94;5067745;28;8885;-80
2022/08/22 02:33:21;;;;;;;;;27.00;25.60;;;;;23.90;73.25;98600.56;5066848;28;8878;-76
2022/08/22 02:35:58;;;;;;;;;20.40;19.80;;;;;24.27;71.27;98605.91;5079049;28;8836;-77
2022/08/22 02:38:34;;;;;;;;;24.40;22.60;;;;;23.43;74.09;98608.19;5086645;28;8867;-77
2022/08/22 02:41:12;;;;;;;;;26.80;26.60;;;;;23.92;72.77;98604.78;5086934;28;8928;-78
2022/08/22 02:43:49;;;;;;;;;27.40;25.40;;;;;23.68;73.22;98606.50;5069102;28;8970;-79
2022/08/22 02:46:28;;;;;;;;;26.40;25.60;;;;;24.03;71.67;98601.38;5085284;28;8967;-78
2022/08/22 02:49:06;;;;;;;;;26.00;24.80;;;;;23.54;73.72;98610.97;5085193;28;9595;-76
2022/08/22 02:51:46;;;;;;;;;26.60;22.60;;;;;23.60;73.43;98599.03;5035248;28;8912;-78
2022/08/22 02:54:24;;;;;;;;;29.80;28.40;;;;;23.69;73.36;98600.22;5085495;28;8858;-78
2022/08/22 02:57:02;;;;;;;;;24.80;24.80;;;;;23.29;75.00;98594.97;5084975;28;8856;-77
2022/08/22 02:59:35;;;;;;;;;26.00;25.20;;;;;23.42;75.11;98589.66;5087155;28;8846;-75
2022/08/22 03:02:32;;;;;;;;;22.80;22.80;;;;;23.62;74.16;98590.94;5104975;28;8850;-76
2022/08/22 03:05:02;;;;;;;;;28.80;27.80;;;;;24.16;72.30;98579.19;4978829;28;8870;-78
2022/08/22 03:07:40;;;;;;;;;27.20;26.80;;;;;24.36;70.93;98586.59;5006133;28;8834;-78
2022/08/22 03:10:18;;;;;;;;;29.00;27.80;;;;;24.76;69.83;98589.00;4989433;28;9619;-78
2022/08/22 03:12:59;;;;;;;;;23.80;23.80;;;;;24.77;69.21;98595.22;4987158;28;8860;-78
2022/08/22 03:15:34;;;;;;;;;25.40;24.60;;;;;24.06;71.96;98592.31;4954812;28;8892;-75
2022/08/22 03:18:15;;;;;;;;;22.80;22.20;;;;;24.36;70.67;98591.91;4989932;28;8843;-78
2022/08/22 03:20:51;;;;;;;;;29.40;27.80;;;;;24.28;70.66;98592.47;5007042;28;8850;-76
2022/08/22 03:23:28;;;;;;;;;30.20;29.60;;;;;24.26;70.94;98593.56;5012132;28;8895;-79
2022/08/22 03:26:04;;;;;;;;;28.40;25.20;;;;;24.30;70.62;98589.69;5027045;28;8875;-77
2022/08/22 03:28:45;;;;;;;;;30.00;26.20;;;;;24.15;71.30;98599.66;5009167;28;8856;-78
2022/08/22 03:31:30;;;;;;;;;26.00;25.00;;;;;23.93;71.94;98605.63;5026009;28;8864;-78
2022/08/22 03:34:21;;;;;;;;;21.40;20.40;;;;;23.67;73.02;98605.66;5025118;28;8861;-79
2022/08/22 03:37:02;;;;;;;;;24.20;23.00;;;;;23.24;74.69;98605.09;5008422;28;8832;-78
2022/08/22 03:39:54;;;;;;;;;24.40;22.20;;;;;23.61;73.22;98602.53;5008565;28;8848;-77
2022/08/22 03:43:03;;;;;;;;;23.00;22.60;;;;;23.28;74.30;98602.09;4987572;28;8862;-76
2022/08/22 03:46:08;;;;;;;;;16.80;16.60;;;;;23.22;74.87;98613.16;5045208;28;8840;-78
2022/08/22 03:49:20;;;;;;;;;21.80;20.60;;;;;23.22;75.35;98602.53;5044952;28;8836;-78
2022/08/22 03:52:13;;;;;;;;;21.20;20.40;;;;;23.25;75.16;98609.44;5028896;28;8828;-77
2022/08/22 03:55:16;;;;;;;;;20.00;18.60;;;;;23.18;75.38;98602.84;5045299;28;8987;-78
2022/08/22 03:58:10;;;;;;;;;14.20;14.20;;;;;23.29;75.06;98594.97;5013363;28;9063;-79
2022/08/22 04:01:28;;;;;;;;;13.80;11.80;;;;;23.02;76.27;98595.84;5025658;28;8857;-79
2022/08/22 04:04:25;;;;;;;;;12.00;11.00;;;;;22.74;77.42;98603.00;4931627;29;8903;-77
2022/08/22 04:07:34;;;;;;;;;4.40;4.00;;;;;22.36;79.22;98601.03;4946970;29;8884;-77
2022/08/22 04:10:25;;;;;;;;;5.80;5.80;;;;;22.81;77.65;98600.78;4954450;28;8858;-76
2022/08/22 04:13:11;;;;;;;;;6.80;6.80;;;;;22.82;77.33;98602.50;4966904;28;8898;-78
2022/08/22 04:16:08;;;;;;;;;4.60;4.60;;;;;23.08;76.27;98602.59;4926919;29;8883;-78
2022/08/22 04:18:53;;;;;;;;;4.00;3.40;;;;;22.73;77.64;98606.59;4936966;28;9069;-79
2022/08/22 04:21:42;;;;;;;;;3.00;3.00;;;;;22.86;76.85;98611.97;4985812;28;8870;-78
2022/08/22 04:24:32;;;;;;;;;3.00;3.00;;;;;22.97;76.55;98611.28;4949897;28;8906;-78
2022/08/22 04:27:10;;;;;;;;;2.80;2.40;;;;;23.14;75.85;98610.19;4950260;28;9005;-78
2022/08/22 04:29:45;;;;;;;;;5.60;5.00;;;;;23.19;75.81;98610.69;4949703;28;8924;-77
2022/08/22 04:32:20;;;;;;;;;6.00;6.00;;;;;23.31;75.57;98606.38;4950703;28;9699;-77
2022/08/22 04:34:53;;;;;;;;;7.00;7.00;;;;;23.60;74.21;98611.50;4919058;28;9009;-77
2022/08/22 04:37:33;;;;;;;;;6.00;6.00;;;;;23.50;74.21;98612.13;4950304;28;9641;-76
2022/08/22 04:40:07;;;;;;;;;9.60;9.20;;;;;23.33;75.41;98610.63;4957019;28;9037;-77
2022/08/22 04:42:39;;;;;;;;;7.40;7.40;;;;;23.31;75.38;98620.53;5028473;28;8902;-77
2022/08/22 04:45:16;;;;;;;;;12.60;11.60;;;;;23.67;73.90;98616.28;5035086;28;9037;-77
2022/08/22 04:47:52;;;;;;;;;9.20;9.20;;;;;23.34;75.05;98622.13;5060662;28;9106;-79
2022/08/22 04:50:26;;;;;;;;;12.00;12.00;;;;;23.03;77.48;98620.66;5034483;28;8856;-77
2022/08/22 04:53:09;;;;;;;;;9.20;9.20;;;;;23.28;75.79;98618.06;5067559;28;8870;-79
2022/08/22 04:55:49;;;;;;;;;11.20;10.80;;;;;23.16;76.14;98622.41;5080358;28;8886;-78
2022/08/22 04:58:32;;;;;;;;;10.40;10.40;;;;;22.98;76.37;98635.06;5089563;28;8855;-76
2022/08/22 05:01:12;;;;;;;;;13.00;12.00;;;;;23.16;74.87;98619.75;5072713;28;8856;-77
2022/08/22 05:03:47;;;;;;;;;13.00;12.00;;;;;23.13;74.47;98630.56;5084025;28;8874;-77
2022/08/22 05:06:19;;;;;;;;;11.60;11.40;;;;;23.78;73.11;98625.31;5068709;28;8965;-75
2022/08/22 05:08:50;;;;;;;;;13.20;13.20;;;;;23.42;72.77;98633.09;5070397;28;9560;-77
2022/08/22 05:11:24;;;;;;;;;14.60;14.60;;;;;23.11;73.83;98629.84;5086109;28;9004;-74
2022/08/22 05:13:57;;;;;;;;;15.20;14.40;;;;;23.37;73.31;98632.56;5105547;28;8871;-78
2022/08/22 05:16:30;;;;;;;;;15.00;15.00;;;;;23.21;73.36;98638.03;5089695;28;8843;-76
2022/08/22 05:19:03;;;;;;;;;16.20;16.20;;;;;23.36;73.42;98638.81;5107357;28;8843;-78
2022/08/22 05:21:35;;;;;;;;;19.60;19.60;;;;;23.38;73.50;98641.38;5088186;28;8853;-77
2022/08/22 05:24:09;;;;;;;;;22.60;22.20;;;;;23.45;72.85;98629.38;5089534;28;8854;-75
2022/08/22 05:26:43;;;;;;;;;17.00;16.00;;;;;23.33;73.28;98639.03;5088089;28;8857;-77
2022/08/22 05:29:17;;;;;;;;;18.80;18.60;;;;;23.53;72.79;98643.88;5087966;28;8868;-76
2022/08/22 05:31:51;;;;;;;;;22.00;19.60;;;;;23.03;74.52;98652.56;5087757;28;8849;-77
2022/08/22 05:34:23;;;;;;;;;20.00;20.00;;;;;23.53;73.17;98649.19;5069608;28;10259;-78
2022/08/22 05:36:58;;;;;;;;;17.60;17.60;;;;;23.52;72.30;98649.28;5104287;28;8876;-75
2022/08/22 05:39:29;;;;;;;;;18.40;17.40;;;;;23.25;73.63;98655.53;5104665;28;8837;-78
2022/08/22 05:42:02;;;;;;;;;17.40;16.60;;;;;22.97;74.59;98656.47;5053487;28;8977;-78
2022/08/22 05:44:33;;;;;;;;;20.80;20.80;;;;;22.90;75.12;98658.66;5070520;28;8880;-78
2022/08/22 05:47:05;;;;;;;;;18.40;18.40;;;;;23.12;74.76;98666.13;5038071;28;8938;-78
2022/08/22 05:49:40;;;;;;;;;17.00;16.20;;;;;22.86;74.77;98667.81;5070486;28;8936;-78
2022/08/22 05:52:19;;;;;;;;;19.00;19.00;;;;;22.67;77.17;98668.16;5087106;28;9625;-76
2022/08/22 05:54:57;;;;;;;;;14.20;14.20;;;;;22.95;75.64;98672.53;5066988;28;8860;-79
2022/08/22 05:57:31;;;;;;;;;4.20;4.00;;;;;22.75;77.10;98673.81;5083877;28;8863;-77
2022/08/22 06:00:06;;;;;;;;;21.40;19.60;;;;;22.71;76.49;98672.31;5049932;28;8867;-79
2022/08/22 06:02:53;;;;;;;;;19.80;19.60;;;;;22.77;75.60;98673.72;5066680;28;8975;-77
2022/08/22 06:05:27;;;;;;;;;18.20;18.20;;;;;22.83;74.94;98675.13;5050201;28;8906;-77
2022/08/22 06:08:00;;;;;;;;;18.80;18.80;;;;;22.73;75.96;98669.56;5082571;28;8891;-78
2022/08/22 06:10:39;;;;;;;;;20.00;18.00;;;;;22.78;75.76;98672.78;5049708;28;8859;-79
2022/08/22 06:13:13;;;;;;;;;20.40;20.40;;;;;22.93;75.14;98677.09;5049619;28;8863;-79
2022/08/22 06:15:50;;;;;;;;;22.60;22.60;;;;;22.92;75.78;98669.22;5049955;28;8872;-78
2022/08/22 06:18:22;;;;;;;;;21.40;20.00;;;;;22.86;75.59;98667.81;5065948;28;8880;-78
2022/08/22 06:20:55;;;;;;;;;22.00;20.80;;;;;22.83;75.66;98678.63;5015926;28;8839;-77
2022/08/22 06:23:27;;;;;;;;;21.80;21.00;;;;;22.83;75.08;98680.44;5082293;28;8840;-78
2022/08/22 06:26:00;;;;;;;;;20.00;19.60;;;;;22.39;76.17;98685.00;5070354;28;8943;-79
2022/08/22 06:28:34;;;;;;;;;26.60;24.40;;;;;22.82;75.84;98679.59;5065336;28;8890;-79
2022/08/22 06:31:05;;;;;;;;;22.00;22.00;;;;;22.66;76.01;98682.38;5032434;28;8855;-79
2022/08/22 06:33:38;;;;;;;;;23.40;22.20;;;;;23.24;74.56;98684.88;5049388;28;8856;-78
2022/08/22 06:36:30;;;;;;;;;25.80;25.80;;;;;23.52;72.81;98687.41;5066074;28;8844;-81
2022/08/22 06:39:15;;;;;;;;;23.40;22.20;;;;;24.00;70.69;98683.31;5066090;28;8975;-80
2022/08/22 06:41:52;;;;;;;;;23.60;22.40;;;;;24.09;70.57;98683.50;5049713;28;8833;-78
2022/08/22 06:44:26;;;;;;;;;19.20;19.20;;;;;24.08;70.15;98697.81;5065439;28;8872;-79
2022/08/22 06:47:01;;;;;;;;;20.20;18.20;;;;;24.20;69.14;98693.41;5048653;28;8856;-78
2022/08/22 06:49:34;;;;;;;;;20.20;20.00;;;;;23.63;70.26;98702.66;5065515;28;8844;-80
2022/08/22 06:52:07;;;;;;;;;21.20;21.20;;;;;23.37;72.25;98708.88;5065208;28;8828;-77
2022/08/22 06:54:39;;;;;;;;;19.40;19.00;;;;;23.69;71.35;98704.03;5049108;28;8868;-78
2022/08/22 06:57:25;;;;;;;;;20.00;19.20;;;;;23.60;71.09;98704.66;5049607;28;8852;-79
2022/08/22 06:59:57;;;;;;;;;19.80;18.60;;;;;23.41;72.06;98716.53;5057579;28;9149;-79
2022/08/22 07:02:30;;;;;;;;;17.00;16.40;;;;;23.89;70.00;98716.88;5068720;28;8884;-80
2022/08/22 07:04:59;;;;;;;;;18.40;18.20;;;;;23.79;69.48;98717.59;5082616;28;9003;-80
2022/08/22 07:07:28;;;;;;;;;22.80;21.80;;;;;23.83;69.93;98721.75;5071970;28;8847;-77
2022/08/22 07:09:57;;;;;;;;;16.00;13.80;;;;;23.49;70.28;98721.34;5088950;28;9641;-77
2022/08/22 07:12:31;;;;;;;;;21.80;18.80;;;;;23.69;69.85;98723.53;5095151;28;8881;-77
2022/08/22 07:15:12;;;;;;;;;23.20;21.40;;;;;24.19;68.67;98718.34;5126260;27;8880;-79
2022/08/22 07:17:49;;;;;;;;;17.80;17.80;;;;;24.36;69.27;98717.16;5078352;28;8863;-79
2022/08/22 07:20:26;;;;;;;;;24.00;23.00;;;;;24.36;68.31;98721.66;5077542;28;8951;-78
2022/08/22 07:22:59;;;;;;;;;21.00;20.00;;;;;24.05;68.37;98726.47;5066252;28;8848;-78
2022/08/22 07:25:29;;;;;;;;;22.40;21.60;;;;;24.64;68.33;98731.22;5078451;28;8882;-79
2022/08/22 07:28:15;;;;;;;;;19.60;17.80;;;;;24.91;66.05;98725.72;5038973;28;8848;-80
2022/08/22 07:30:54;;;;;;;;;16.60;16.60;;;;;24.92;65.04;98724.75;5055435;28;8974;-79
2022/08/22 07:33:39;;;;;;;;;15.80;15.00;;;;;25.16;64.43;98724.78;5064911;28;8955;-80
2022/08/22 07:36:20;;;;;;;;;19.20;17.80;;;;;24.75;64.46;98733.13;5048426;28;8870;-78
2022/08/22 07:39:08;;;;;;;;;11.20;11.20;;;;;24.12;66.46;98733.94;5047858;28;10066;-80
2022/08/22 07:41:50;;;;;;;;;16.20;16.20;;;;;24.37;67.01;98737.53;5064737;28;8860;-79
2022/08/22 07:44:25;;;;;;;;;15.80;14.40;;;;;23.82;68.35;98733.34;5031018;28;8974;-79
2022/08/22 07:46:59;;;;;;;;;17.60;16.40;;;;;23.89;67.24;98737.31;5081394;28;8840;-77
2022/08/22 07:49:32;;;;;;;;;15.40;14.40;;;;;23.79;68.79;98736.25;5060639;28;8846;-78
2022/08/22 07:52:06;;;;;;;;;15.40;15.40;;;;;23.58;68.88;98735.84;5060442;28;8858;-78
2022/08/22 07:54:41;;;;;;;;;16.60;16.40;;;;;23.78;68.27;98732.69;5082884;28;8854;-78
2022/08/22 07:57:15;;;;;;;;;15.00;14.00;;;;;23.64;67.77;98733.63;5067722;28;10156;-80
2022/08/22 07:59:48;;;;;;;;;13.40;13.20;;;;;23.67;67.27;98730.75;5089210;28;8874;-77
2022/08/22 08:02:19;;;;;;;;;22.00;18.40;;;;;23.79;68.41;98731.75;5092496;28;8851;-78
2022/08/22 08:04:51;;;;;;;;;20.60;20.20;;;;;23.74;68.69;98737.38;5090407;28;9373;-77
2022/08/22 08:07:24;;;;;;;;;21.40;18.40;;;;;23.61;68.09;98739.16;5090678;28;9676;-77
2022/08/22 08:09:58;;;;;;;;;17.00;16.20;;;;;23.99;68.45;98737.53;5090368;28;8855;-79
2022/08/22 08:12:34;;;;;;;;;16.20;16.20;;;;;24.56;68.11;98729.13;5090503;28;8835;-79
2022/08/22 08:15:09;;;;;;;;;17.80;15.80;;;;;24.51;65.77;98729.44;5089860;28;8856;-78
2022/08/22 08:17:40;;;;;;;;;30.00;29.00;;;;;24.16;66.98;98731.91;5090317;28;8912;-78
2022/08/22 08:20:12;;;;;;;;;14.00;13.40;;;;;24.49;64.84;98726.00;5039857;28;9085;-78
2022/08/22 08:22:46;;;;;;;;;10.40;10.40;;;;;24.64;64.15;98731.22;5089663;28;8952;-80
2022/08/22 08:25:19;;;;;;;;;13.20;13.20;;;;;24.60;63.79;98730.59;5090991;28;8906;-78
2022/08/22 08:30:43;;;;;;;;;13.20;13.20;;;;;24.53;64.56;98734.66;5089865;28;8960;-79
2022/08/22 08:33:18;;;;;;;;;14.20;13.40;;;;;24.76;64.73;98735.66;5038291;28;8848;-78
2022/08/22 08:36:00;;;;;;;;;14.80;14.80;;;;;25.09;64.68;98734.19;5072137;28;8836;-79
2022/08/22 08:38:37;;;;;;;;;10.40;10.40;;;;;25.46;63.08;98736.81;5098851;28;8852;-77
2022/08/22 08:41:47;;;;;;;;;17.00;16.20;;;;;25.21;63.18;98735.09;5057942;28;8949;-77
2022/08/22 08:44:31;;;;;;;;;14.00;13.80;;;;;25.10;62.24;98736.75;4968769;28;8899;-79
2022/08/22 08:47:21;;;;;;;;;16.00;16.00;;;;;24.98;62.99;98742.97;4969904;28;9003;-78
2022/08/22 08:50:10;;;;;;;;;16.60;15.60;;;;;25.10;62.54;98733.22;4937868;28;8884;-81
2022/08/22 08:53:03;;;;;;;;;18.40;18.40;;;;;25.48;61.91;98740.22;4915511;29;8890;-79
2022/08/22 08:55:49;;;;;;;;;14.60;13.60;;;;;25.87;60.09;98746.19;4925567;28;8908;-78
2022/08/22 08:58:36;;;;;;;;;12.60;12.60;;;;;25.44;60.22;98741.41;4933870;28;9712;-81
2022/08/22 09:01:36;;;;;;;;;13.00;11.60;;;;;25.41;60.29;98744.34;4933845;28;8915;-79
2022/08/22 09:04:30;;;;;;;;;14.00;13.60;;;;;25.40;60.34;98737.28;4934737;28;9642;-77
2022/08/22 09:07:24;;;;;;;;;14.60;14.60;;;;;25.05;60.38;98738.06;4874093;29;8881;-78
2022/08/22 09:10:13;;;;;;;;;13.20;13.20;;;;;24.84;62.43;98751.09;4872191;29;8877;-80
2022/08/22 09:13:05;;;;;;;;;22.60;21.00;;;;;25.15;61.40;98743.56;4842319;29;9683;-79
2022/08/22 09:16:00;;;;;;;;;15.60;15.60;;;;;25.73;60.30;98747.25;4857728;29;8894;-81
2022/08/22 09:19:23;;;;;;;;;33.20;27.60;;;;;25.37;60.26;98754.38;4858751;29;8854;-78
2022/08/22 09:22:21;;;;;;;;;17.20;16.00;;;;;25.79;58.79;98754.78;4985060;28;8853;-77
2022/08/22 09:25:23;;;;;;;;;13.60;13.60;;;;;26.20;60.48;98749.91;4872844;29;8888;-79
2022/08/22 09:27:59;;;;;;;;;14.20;13.60;;;;;26.13;59.20;98751.38;4858948;29;9634;-79
2022/08/22 09:30:48;;;;;;;;;12.80;12.80;;;;;25.98;58.55;98746.25;4872322;29;8864;-78
2022/08/22 09:33:24;;;;;;;;;16.40;14.80;;;;;26.34;56.55;98743.50;4872761;29;8924;-79
2022/08/22 09:36:02;;;;;;;;;16.60;15.60;;;;;25.93;57.56;98748.41;4873380;29;8999;-78
2022/08/22 09:38:43;;;;;;;;;19.80;19.20;;;;;26.03;58.27;98748.53;4873167;29;9019;-79
2022/08/22 09:41:52;;;;;;;;;17.60;16.20;;;;;25.63;58.07;98751.56;4873278;29;8908;-78
2022/08/22 09:44:36;;;;;;;;;11.40;11.20;;;;;25.34;58.30;98751.94;4893239;29;8942;-78
2022/08/22 09:47:21;;;;;;;;;13.40;13.40;;;;;25.05;59.59;98749.56;4875567;29;8872;-79
2022/08/22 09:50:03;;;;;;;;;16.40;14.60;;;;;25.12;60.40;98755.28;4891580;29;8998;-79
2022/08/22 09:52:52;;;;;;;;;15.00;13.40;;;;;25.02;60.18;98748.94;4892035;29;8875;-78
2022/08/22 09:55:40;;;;;;;;;12.80;12.80;;;;;24.83;60.57;98752.09;4875884;29;8879;-78
2022/08/22 09:58:22;;;;;;;;;13.80;13.20;;;;;24.78;61.93;98751.56;4891920;29;8879;-79
2022/08/22 10:00:57;;;;;;;;;14.60;14.60;;;;;24.19;62.43;98760.97;4893461;28;8861;-79
2022/08/22 10:03:52;;;;;;;;;16.80;15.20;;;;;23.88;64.29;98767.56;5045401;28;8892;-79
2022/08/22 10:06:28;;;;;;;;;14.80;14.80;;;;;23.86;64.04;98758.84;5045483;28;8846;-78
2022/08/22 10:09:05;;;;;;;;;12.20;12.20;;;;;24.31;63.29;98761.97;5012473;28;8843;-79
2022/08/22 10:11:42;;;;;;;;;16.40;15.60;;;;;24.33;63.24;98763.53;5031520;28;8855;-77
2022/08/22 10:14:20;;;;;;;;;12.60;12.60;;;;;24.44;62.10;98759.25;5048775;28;8843;-78
2022/08/22 10:17:05;;;;;;;;;17.20;17.20;;;;;25.18;61.12;98760.19;5047552;28;8873;-78
2022/08/22 10:19:42;;;;;;;;;13.00;12.00;;;;;25.33;60.38;98757.38;5068076;28;8872;-77
2022/08/22 10:22:36;;;;;;;;;10.80;10.60;;;;;25.18;59.54;98754.00;5065932;28;8866;-79
2022/08/22 10:25:21;;;;;;;;;10.80;10.80;;;;;25.86;59.44;98757.84;5066473;28;8858;-76
2022/08/22 10:28:21;;;;;;;;;11.20;11.20;;;;;26.13;56.65;98751.38;5067892;28;8874;-78
2022/08/22 10:31:07;;;;;;;;;16.20;14.60;;;;;25.91;57.81;98749.47;5050031;28;8881;-80
2022/08/22 10:33:42;;;;;;;;;16.00;15.80;;;;;26.50;58.99;98757.34;5064599;28;8864;-79
2022/08/22 10:36:16;;;;;;;;;13.60;13.60;;;;;26.73;57.27;98768.06;5065700;28;8974;-78
2022/08/22 10:38:50;;;;;;;;;15.20;14.80;;;;;26.03;55.92;98756.56;5056633;28;8996;-78
2022/08/22 10:41:29;;;;;;;;;14.80;13.40;;;;;26.00;55.78;98759.50;5029218;28;8861;-76
2022/08/22 10:44:05;;;;;;;;;17.60;15.20;;;;;26.65;56.40;98763.34;5029075;28;8858;-78
2022/08/22 10:46:40;;;;;;;;;16.80;16.80;;;;;26.42;55.56;98760.63;5028766;28;8935;-78
2022/08/22 10:49:19;;;;;;;;;32.20;30.60;;;;;26.56;55.96;98759.56;5050410;28;8974;-79
2022/08/22 10:51:59;;;;;;;;;26.40;22.80;;;;;26.45;53.20;98765.75;5049539;28;8922;-80
2022/08/22 10:54:48;;;;;;;;;25.60;24.20;;;;;26.05;54.35;98766.19;5050663;28;8958;-80
2022/08/22 10:57:56;;;;;;;;;23.80;22.80;;;;;25.80;55.71;98763.63;5054059;28;8836;-78
2022/08/22 11:00:40;;;;;;;;;23.00;22.00;;;;;26.75;56.52;98761.63;4973751;28;8966;-79
2022/08/22 11:03:23;;;;;;;;;22.40;21.00;;;;;26.77;53.20;98757.00;4971651;28;8853;-80
2022/08/22 11:05:54;;;;;;;;;24.80;22.20;;;;;26.18;55.25;98770.56;4983280;28;8928;-79
2022/08/22 11:08:54;;;;;;;;;25.60;24.40;;;;;26.03;55.00;98772.59;4990628;28;8884;-78
2022/08/22 11:11:39;;;;;;;;;19.00;18.60;;;;;25.94;56.96;98771.50;4990994;28;8860;-79
2022/08/22 11:14:53;;;;;;;;;21.20;18.60;;;;;26.35;54.17;98759.44;4990052;28;8890;-79
2022/08/22 11:17:54;;;;;;;;;18.80;18.40;;;;;27.25;54.93;98766.56;5005897;28;8885;-79
2022/08/22 11:20:30;;;;;;;;;14.80;14.80;;;;;27.22;53.71;98769.44;5006119;28;8872;-77
2022/08/22 11:23:17;;;;;;;;;22.20;19.80;;;;;26.72;53.02;98777.09;4966256;28;8860;-77
2022/08/22 11:25:56;;;;;;;;;21.60;21.60;;;;;26.43;53.86;98773.03;4950839;28;8943;-76
2022/08/22 11:28:40;;;;;;;;;23.60;22.20;;;;;25.95;54.02;98778.53;4986794;28;8868;-78
2022/08/22 11:31:21;;;;;;;;;26.00;23.20;;;;;25.58;54.56;98773.28;4940862;28;8852;-77
2022/08/22 11:33:55;;;;;;;;;23.80;23.60;;;;;25.55;55.63;98776.16;4993301;28;8880;-77
2022/08/22 11:36:34;;;;;;;;;25.60;24.20;;;;;25.45;55.62;98773.34;5006885;28;8918;-77
2022/08/22 11:39:16;;;;;;;;;25.20;22.80;;;;;25.43;55.94;98774.44;5008133;28;8848;-78
2022/08/22 11:41:57;;;;;;;;;26.20;22.60;;;;;25.35;55.77;98776.81;5052775;28;9085;-78
2022/08/22 11:44:31;;;;;;;;;27.60;26.80;;;;;25.77;56.67;98766.56;5047725;28;8957;-77
2022/08/22 11:47:08;;;;;;;;;31.40;25.80;;;;;25.64;54.26;98761.28;5064043;28;8848;-81
2022/08/22 11:49:52;;;;;;;;;24.40;24.00;;;;;25.57;55.14;98768.91;5065645;28;9723;-77
2022/08/22 11:52:29;;;;;;;;;21.20;21.00;;;;;26.12;55.08;98763.03;5067845;28;9635;-78
2022/08/22 11:55:17;;;;;;;;;23.80;22.00;;;;;26.44;53.17;98761.34;5047327;28;8868;-80
2022/08/22 11:57:48;;;;;;;;;23.20;20.80;;;;;26.17;53.41;98760.84;5031408;28;8871;-77
2022/08/22 12:00:30;;;;;;;;;19.40;19.40;;;;;25.91;53.35;98762.84;5027979;28;8965;-81
2022/08/22 12:03:34;;;;;;;;;19.80;18.60;;;;;25.90;54.83;98756.66;5067183;28;8850;-80
2022/08/22 12:06:20;;;;;;;;;19.00;19.00;;;;;26.19;54.04;98765.09;5025095;28;8994;-78
2022/08/22 12:09:17;;;;;;;;;15.20;14.00;;;;;26.32;52.34;98751.63;5008525;28;8986;-80
2022/08/22 12:11:58;;;;;;;;;16.20;16.20;;;;;26.06;53.55;98754.50;5035338;28;8939;-78
2022/08/22 12:14:34;;;;;;;;;19.40;18.60;;;;;26.93;51.17;98742.41;5028654;28;8864;-78
2022/08/22 12:17:16;;;;;;;;;19.40;19.40;;;;;27.09;52.08;98732.16;5028256;28;8854;-78
2022/08/22 12:20:20;;;;;;;;;20.00;19.40;;;;;26.83;51.13;98739.63;5029037;28;9632;-78
2022/08/22 12:23:14;;;;;;;;;21.40;21.40;;;;;26.71;50.91;98741.47;5000723;28;8866;-82
2022/08/22 12:26:02;;;;;;;;;24.20;24.20;;;;;27.14;50.17;98727.25;5029906;28;8849;-79
2022/08/22 12:28:41;;;;;;;;;25.20;24.20;;;;;28.13;50.80;98729.78;5044345;28;8862;-78
2022/08/22 12:31:16;;;;;;;;;26.00;23.40;;;;;28.75;49.46;98720.75;5044652;28;8866;-79
2022/08/22 12:33:56;;;;;;;;;22.80;22.20;;;;;29.08;45.13;98724.06;5027551;28;9002;-78
2022/08/22 12:36:58;;;;;;;;;22.00;21.60;;;;;27.36;48.62;98744.25;5045108;28;10068;-78
2022/08/22 12:39:53;;;;;;;;;28.00;23.60;;;;;27.55;48.86;98730.19;5044959;28;8869;-79